Annsville, New York
Current Conditions -  °F | °C
As of 2:53 AM on Sunday 23 Nov 2014 (Local Time) from KRME Reporting Station
Light Rain Light Rain  
Wind Chill: 32°   Ceiling: 2700
Heat Index: 38°   Visibility: 5mi
Dew Point: 38°   Wind: 8mph
Humidity: 100%   Direction: 90°E
Pressure: 30.05"   Gusts: NA
Location:  43.3949°N, 75.6118°W
Report Text: KRME 230753Z AUTO 09007KT 5SM -RA BR BKN027 OVC032 03/03 A3005 RMK AO2 SLP178 P0004 T00330033
Loading
Personal Weather Stations






























Interactive Weather Map New forecast layout! Learn more

10-Day Weather Forecast

Advertisements
Track Severe Weather on mobile